Ellon, United Kingdom
Current Conditions -  °F | °C
As of 3:20 PM on Monday 22 Dec 2014 (Local Time) from EGPD Reporting Station
Few Clouds Few Clouds  
Wind Chill: 42°   Ceiling: Unl
Heat Index: 46°   Visibility: 6mi
Dew Point: 36°   Wind: 9mph
Humidity: 66%   Direction: 250°WSW
Pressure: 29.5"   Gusts: NA
Location:  57.37°N, 2.07°W
Report Text: EGPD 221520Z 25008KT 160V280 9999 FEW045 08/02 Q0999 NOSIG
Loading
Personal Weather Stations






























Interactive Weather Map New forecast layout! Learn more

10-Day Weather Forecast

Advertisements
Track Severe Weather on mobile